sensor_id;sensor_type;location;lat;lon;timestamp;temperature;humidity
2611;DHT22;5612;51.134;17.058;2024-01-15T00:01:35;1.40;64.60
2611;DHT22;5612;51.134;17.058;2024-01-15T00:04:06;1.60;57.60
2611;DHT22;5612;51.134;17.058;2024-01-15T00:06:35;1.60;15.10
2611;DHT22;5612;51.134;17.058;2024-01-15T00:09:04;1.60;1.00
2611;DHT22;5612;51.134;17.058;2024-01-15T00:11:34;1.60;1.00
2611;DHT22;5612;51.134;17.058;2024-01-15T00:14:03;1.60;1.00
2611;DHT22;5612;51.134;17.058;2024-01-15T00:16:32;1.60;1.00
2611;DHT22;5612;51.134;17.058;2024-01-15T00:19:01;1.60;99.90
2611;DHT22;5612;51.134;17.058;2024-01-15T00:21:31;1.70;2.40
2611;DHT22;5612;51.134;17.058;2024-01-15T00:24:00;1.70;99.90
2611;DHT22;5612;51.134;17.058;2024-01-15T00:26:29;1.70;99.90
2611;DHT22;5612;51.134;17.058;2024-01-15T00:28:58;1.70;99.90
2611;DHT22;5612;51.134;17.058;2024-01-15T00:31:27;1.70;99.90
2611;DHT22;5612;51.134;17.058;2024-01-15T00:33:57;1.60;99.90
2611;DHT22;5612;51.134;17.058;2024-01-15T00:36:26;1.60;99.90
2611;DHT22;5612;51.134;17.058;2024-01-15T00:38:57;1.70;99.90
2611;DHT22;5612;51.134;17.058;2024-01-15T00:41:26;1.70;1.00
2611;DHT22;5612;51.134;17.058;2024-01-15T00:43:56;1.70;1.00
2611;DHT22;5612;51.134;17.058;2024-01-15T00:46:25;1.70;1.00
2611;DHT22;5612;51.134;17.058;2024-01-15T00:48:53;1.70;99.90
2611;DHT22;5612;51.134;17.058;2024-01-15T00:51:23;1.70;99.90
2611;DHT22;5612;51.134;17.058;2024-01-15T00:53:51;1.80;99.90
2611;DHT22;5612;51.134;17.058;2024-01-15T00:56:22;1.80;35.60
2611;DHT22;5612;51.134;17.058;2024-01-15T00:58:51;1.80;1.00
2611;DHT22;5612;51.134;17.058;2024-01-15T01:01:19;1.80;1.00
2611;DHT22;5612;51.134;17.058;2024-01-15T01:03:48;1.80;1.00
2611;DHT22;5612;51.134;17.058;2024-01-15T01:06:18;1.80;1.00
2611;DHT22;5612;51.134;17.058;2024-01-15T01:08:46;1.80;1.00
2611;DHT22;5612;51.134;17.058;2024-01-15T01:11:16;1.80;1.00
2611;DHT22;5612;51.134;17.058;2024-01-15T01:13:46;1.80;1.00
2611;DHT22;5612;51.134;17.058;2024-01-15T01:16:15;1.80;99.90
2611;DHT22;5612;51.134;17.058;2024-01-15T01:18:44;1.80;1.00
2611;DHT22;5612;51.134;17.058;2024-01-15T01:21:13;1.80;1.00
2611;DHT22;5612;51.134;17.058;2024-01-15T01:23:42;1.80;1.00
2611;DHT22;5612;51.134;17.058;2024-01-15T01:26:15;1.80;99.90
2611;DHT22;5612;51.134;17.058;2024-01-15T01:28:46;1.80;1.00
2611;DHT22;5612;51.134;17.058;2024-01-15T01:31:14;1.80;99.90
2611;DHT22;5612;51.134;17.058;2024-01-15T01:33:44;1.80;99.90
2611;DHT22;5612;51.134;17.058;2024-01-15T01:36:13;1.80;1.00
2611;DHT22;5612;51.134;17.058;2024-01-15T01:38:42;1.80;99.90
2611;DHT22;5612;51.134;17.058;2024-01-15T01:41:11;1.80;99.90
2611;DHT22;5612;51.134;17.058;2024-01-15T01:43:40;1.80;99.90
2611;DHT22;5612;51.134;17.058;2024-01-15T01:46:11;1.80;99.90
2611;DHT22;5612;51.134;17.058;2024-01-15T01:48:40;1.80;99.90
2611;DHT22;5612;51.134;17.058;2024-01-15T01:51:10;1.90;99.90
2611;DHT22;5612;51.134;17.058;2024-01-15T01:53:39;1.90;99.90
2611;DHT22;5612;51.134;17.058;2024-01-15T01:56:09;1.90;99.90
2611;DHT22;5612;51.134;17.058;2024-01-15T01:58:39;1.80;99.90
2611;DHT22;5612;51.134;17.058;2024-01-15T02:01:08;1.80;99.90
2611;DHT22;5612;51.134;17.058;2024-01-15T02:03:39;1.90;99.90
2611;DHT22;5612;51.134;17.058;2024-01-15T02:06:08;1.80;1.00
2611;DHT22;5612;51.134;17.058;2024-01-15T02:08:37;1.80;1.00
2611;DHT22;5612;51.134;17.058;2024-01-15T02:11:06;1.70;1.00
2611;DHT22;5612;51.134;17.058;2024-01-15T02:13:35;1.70;99.90
2611;DHT22;5612;51.134;17.058;2024-01-15T02:16:04;1.60;99.90
2611;DHT22;5612;51.134;17.058;2024-01-15T02:18:44;1.50;99.90
2611;DHT22;5612;51.134;17.058;2024-01-15T02:21:13;1.40;1.00
2611;DHT22;5612;51.134;17.058;2024-01-15T02:23:43;1.40;1.00
2611;DHT22;5612;51.134;17.058;2024-01-15T02:26:12;1.20;1.00
2611;DHT22;5612;51.134;17.058;2024-01-15T02:28:42;1.20;1.00
2611;DHT22;5612;51.134;17.058;2024-01-15T02:31:11;1.10;1.00
2611;DHT22;5612;51.134;17.058;2024-01-15T02:33:41;1.20;1.00
2611;DHT22;5612;51.134;17.058;2024-01-15T02:36:11;1.10;1.00
2611;DHT22;5612;51.134;17.058;2024-01-15T02:38:41;1.20;1.00
2611;DHT22;5612;51.134;17.058;2024-01-15T02:41:11;1.20;99.90
2611;DHT22;5612;51.134;17.058;2024-01-15T02:43:41;1.10;99.90
2611;DHT22;5612;51.134;17.058;2024-01-15T02:46:10;1.20;1.00
2611;DHT22;5612;51.134;17.058;2024-01-15T02:48:39;1.20;1.00
2611;DHT22;5612;51.134;17.058;2024-01-15T02:51:08;1.20;99.90
2611;DHT22;5612;51.134;17.058;2024-01-15T02:53:37;1.30;99.90
2611;DHT22;5612;51.134;17.058;2024-01-15T02:56:07;1.30;1.00
2611;DHT22;5612;51.134;17.058;2024-01-15T02:58:37;1.20;1.00
2611;DHT22;5612;51.134;17.058;2024-01-15T03:01:06;1.10;1.00
2611;DHT22;5612;51.134;17.058;2024-01-15T03:03:36;1.10;1.00
2611;DHT22;5612;51.134;17.058;2024-01-15T03:06:05;1.10;1.00
2611;DHT22;5612;51.134;17.058;2024-01-15T03:08:34;1.10;1.00
2611;DHT22;5612;51.134;17.058;2024-01-15T03:11:03;1.10;1.00
2611;DHT22;5612;51.134;17.058;2024-01-15T03:13:37;1.10;1.00
2611;DHT22;5612;51.134;17.058;2024-01-15T03:16:06;1.20;99.90
2611;DHT22;5612;51.134;17.058;2024-01-15T03:18:35;1.20;1.00
2611;DHT22;5612;51.134;17.058;2024-01-15T03:21:05;1.30;99.90
2611;DHT22;5612;51.134;17.058;2024-01-15T03:23:34;1.30;99.90
2611;DHT22;5612;51.134;17.058;2024-01-15T03:26:03;1.40;99.90
2611;DHT22;5612;51.134;17.058;2024-01-15T03:28:32;1.50;99.90
2611;DHT22;5612;51.134;17.058;2024-01-15T03:31:02;1.40;1.00
2611;DHT22;5612;51.134;17.058;2024-01-15T03:33:31;1.40;1.00
2611;DHT22;5612;51.134;17.058;2024-01-15T03:36:00;1.40;1.00
2611;DHT22;5612;51.134;17.058;2024-01-15T03:38:29;1.30;1.00
2611;DHT22;5612;51.134;17.058;2024-01-15T03:40:58;1.30;1.00
2611;DHT22;5612;51.134;17.058;2024-01-15T03:43:27;1.30;99.90
2611;DHT22;5612;51.134;17.058;2024-01-15T03:45:56;1.30;99.90
2611;DHT22;5612;51.134;17.058;2024-01-15T03:48:26;1.30;99.90
2611;DHT22;5612;51.134;17.058;2024-01-15T03:50:55;1.30;1.00
2611;DHT22;5612;51.134;17.058;2024-01-15T03:53:24;1.30;1.00
2611;DHT22;5612;51.134;17.058;2024-01-15T03:55:53;1.40;99.90
2611;DHT22;5612;51.134;17.058;2024-01-15T03:58:22;1.30;1.00
2611;DHT22;5612;51.134;17.058;2024-01-15T04:00:51;1.40;99.90
2611;DHT22;5612;51.134;17.058;2024-01-15T04:03:20;1.50;1.00
2611;DHT22;5612;51.134;17.058;2024-01-15T04:05:51;1.50;99.90
2611;DHT22;5612;51.134;17.058;2024-01-15T04:08:20;1.50;99.90
2611;DHT22;5612;51.134;17.058;2024-01-15T04:10:49;1.50;10.10
2611;DHT22;5612;51.134;17.058;2024-01-15T04:13:18;1.50;1.00
2611;DHT22;5612;51.134;17.058;2024-01-15T04:15:46;1.60;1.00
2611;DHT22;5612;51.134;17.058;2024-01-15T04:18:16;1.70;1.00
2611;DHT22;5612;51.134;17.058;2024-01-15T04:20:45;1.60;1.00
2611;DHT22;5612;51.134;17.058;2024-01-15T04:23:15;1.60;1.00
2611;DHT22;5612;51.134;17.058;2024-01-15T04:25:44;1.60;1.00
2611;DHT22;5612;51.134;17.058;2024-01-15T04:28:13;1.60;1.00
2611;DHT22;5612;51.134;17.058;2024-01-15T04:30:42;1.60;1.00
2611;DHT22;5612;51.134;17.058;2024-01-15T04:33:11;1.60;1.00
2611;DHT22;5612;51.134;17.058;2024-01-15T04:35:40;1.60;1.00
2611;DHT22;5612;51.134;17.058;2024-01-15T04:38:09;1.70;1.00
2611;DHT22;5612;51.134;17.058;2024-01-15T04:40:40;1.70;1.00
2611;DHT22;5612;51.134;17.058;2024-01-15T04:43:08;1.70;1.00
2611;DHT22;5612;51.134;17.058;2024-01-15T04:45:37;1.70;1.00
2611;DHT22;5612;51.134;17.058;2024-01-15T04:48:06;1.70;1.00
2611;DHT22;5612;51.134;17.058;2024-01-15T04:50:35;1.70;1.00
2611;DHT22;5612;51.134;17.058;2024-01-15T04:53:04;1.70;1.00
2611;DHT22;5612;51.134;17.058;2024-01-15T04:55:36;1.80;1.00
2611;DHT22;5612;51.134;17.058;2024-01-15T04:58:06;1.80;1.00
2611;DHT22;5612;51.134;17.058;2024-01-15T05:00:35;1.70;1.00
2611;DHT22;5612;51.134;17.058;2024-01-15T05:03:04;1.80;99.90
2611;DHT22;5612;51.134;17.058;2024-01-15T05:05:33;1.70;99.90
2611;DHT22;5612;51.134;17.058;2024-01-15T05:08:03;1.70;1.00
2611;DHT22;5612;51.134;17.058;2024-01-15T05:10:32;1.70;1.00
2611;DHT22;5612;51.134;17.058;2024-01-15T05:13:00;1.70;99.90
2611;DHT22;5612;51.134;17.058;2024-01-15T05:15:31;1.70;99.90
2611;DHT22;5612;51.134;17.058;2024-01-15T05:18:00;1.70;1.00
2611;DHT22;5612;51.134;17.058;2024-01-15T05:20:28;1.70;1.00
2611;DHT22;5612;51.134;17.058;2024-01-15T05:22:57;1.80;99.90
2611;DHT22;5612;51.134;17.058;2024-01-15T05:25:26;1.80;99.90
2611;DHT22;5612;51.134;17.058;2024-01-15T05:27:55;1.80;1.00
2611;DHT22;5612;51.134;17.058;2024-01-15T05:30:24;1.70;1.00
2611;DHT22;5612;51.134;17.058;2024-01-15T05:32:54;1.50;1.00
2611;DHT22;5612;51.134;17.058;2024-01-15T05:35:24;1.30;99.90
2611;DHT22;5612;51.134;17.058;2024-01-15T05:37:53;1.20;1.00
2611;DHT22;5612;51.134;17.058;2024-01-15T05:40:22;1.20;1.00
2611;DHT22;5612;51.134;17.058;2024-01-15T05:42:51;1.10;1.00
2611;DHT22;5612;51.134;17.058;2024-01-15T05:45:20;1.10;58.40
2611;DHT22;5612;51.134;17.058;2024-01-15T05:47:50;1.00;99.90
2611;DHT22;5612;51.134;17.058;2024-01-15T05:50:20;1.00;99.90
2611;DHT22;5612;51.134;17.058;2024-01-15T05:52:49;1.00;99.90
2611;DHT22;5612;51.134;17.058;2024-01-15T05:55:19;0.90;99.90
2611;DHT22;5612;51.134;17.058;2024-01-15T05:57:48;0.90;99.90
2611;DHT22;5612;51.134;17.058;2024-01-15T06:00:17;0.90;99.90
2611;DHT22;5612;51.134;17.058;2024-01-15T06:02:46;0.90;99.90
2611;DHT22;5612;51.134;17.058;2024-01-15T06:05:15;1.00;99.90
2611;DHT22;5612;51.134;17.058;2024-01-15T06:07:45;1.00;86.50
2611;DHT22;5612;51.134;17.058;2024-01-15T06:10:14;1.00;65.10
2611;DHT22;5612;51.134;17.058;2024-01-15T06:12:43;1.00;19.20
2611;DHT22;5612;51.134;17.058;2024-01-15T06:15:13;1.10;1.00
2611;DHT22;5612;51.134;17.058;2024-01-15T06:17:41;1.10;1.00
2611;DHT22;5612;51.134;17.058;2024-01-15T06:20:11;1.20;1.00
2611;DHT22;5612;51.134;17.058;2024-01-15T06:22:40;1.20;1.00
2611;DHT22;5612;51.134;17.058;2024-01-15T06:25:11;1.30;1.00
2611;DHT22;5612;51.134;17.058;2024-01-15T06:27:39;1.30;1.00
2611;DHT22;5612;51.134;17.058;2024-01-15T06:30:09;1.30;1.00
2611;DHT22;5612;51.134;17.058;2024-01-15T06:32:39;1.30;1.00
2611;DHT22;5612;51.134;17.058;2024-01-15T06:35:09;1.40;1.00
2611;DHT22;5612;51.134;17.058;2024-01-15T06:37:39;1.40;1.00
2611;DHT22;5612;51.134;17.058;2024-01-15T06:40:10;1.40;99.90
2611;DHT22;5612;51.134;17.058;2024-01-15T06:42:40;1.40;99.90
2611;DHT22;5612;51.134;17.058;2024-01-15T06:45:09;1.40;99.90
2611;DHT22;5612;51.134;17.058;2024-01-15T06:47:38;1.40;1.00
2611;DHT22;5612;51.134;17.058;2024-01-15T06:50:08;1.40;1.00
2611;DHT22;5612;51.134;17.058;2024-01-15T06:52:37;1.50;99.90
2611;DHT22;5612;51.134;17.058;2024-01-15T06:55:06;1.50;99.90
2611;DHT22;5612;51.134;17.058;2024-01-15T06:57:38;1.50;1.00
2611;DHT22;5612;51.134;17.058;2024-01-15T07:00:08;1.50;99.90
2611;DHT22;5612;51.134;17.058;2024-01-15T07:02:38;1.60;1.00
2611;DHT22;5612;51.134;17.058;2024-01-15T07:05:07;1.50;99.90
2611;DHT22;5612;51.134;17.058;2024-01-15T07:07:37;1.50;99.90
2611;DHT22;5612;51.134;17.058;2024-01-15T07:10:07;1.60;99.90
2611;DHT22;5612;51.134;17.058;2024-01-15T07:12:37;1.50;99.90
2611;DHT22;5612;51.134;17.058;2024-01-15T07:15:07;1.60;1.00
2611;DHT22;5612;51.134;17.058;2024-01-15T07:17:36;1.50;1.00
2611;DHT22;5612;51.134;17.058;2024-01-15T07:20:08;1.60;1.00
2611;DHT22;5612;51.134;17.058;2024-01-15T07:22:37;1.60;1.00
2611;DHT22;5612;51.134;17.058;2024-01-15T07:25:06;1.60;1.00
2611;DHT22;5612;51.134;17.058;2024-01-15T07:27:36;1.60;1.00
2611;DHT22;5612;51.134;17.058;2024-01-15T07:30:06;1.60;1.00
2611;DHT22;5612;51.134;17.058;2024-01-15T07:32:36;1.60;1.00
2611;DHT22;5612;51.134;17.058;2024-01-15T07:35:05;1.60;99.90
2611;DHT22;5612;51.134;17.058;2024-01-15T07:37:34;1.60;99.90
2611;DHT22;5612;51.134;17.058;2024-01-15T07:40:05;1.60;99.90
2611;DHT22;5612;51.134;17.058;2024-01-15T07:42:37;1.70;99.90
2611;DHT22;5612;51.134;17.058;2024-01-15T07:45:06;1.60;99.90
2611;DHT22;5612;51.134;17.058;2024-01-15T07:47:35;1.70;99.90
2611;DHT22;5612;51.134;17.058;2024-01-15T07:50:05;1.70;99.90
2611;DHT22;5612;51.134;17.058;2024-01-15T07:52:34;1.70;99.90
2611;DHT22;5612;51.134;17.058;2024-01-15T07:55:04;1.70;99.90
2611;DHT22;5612;51.134;17.058;2024-01-15T07:57:33;1.80;99.90
2611;DHT22;5612;51.134;17.058;2024-01-15T08:00:06;1.80;99.90
2611;DHT22;5612;51.134;17.058;2024-01-15T08:02:36;1.80;99.90
2611;DHT22;5612;51.134;17.058;2024-01-15T08:05:06;1.80;99.90
2611;DHT22;5612;51.134;17.058;2024-01-15T08:07:35;1.90;99.90
2611;DHT22;5612;51.134;17.058;2024-01-15T08:10:04;1.90;99.90
2611;DHT22;5612;51.134;17.058;2024-01-15T08:12:33;2.00;99.90
2611;DHT22;5612;51.134;17.058;2024-01-15T08:15:04;1.90;99.90
2611;DHT22;5612;51.134;17.058;2024-01-15T08:17:33;1.90;99.90
2611;DHT22;5612;51.134;17.058;2024-01-15T08:20:02;1.90;99.90
2611;DHT22;5612;51.134;17.058;2024-01-15T08:22:33;1.90;99.90
2611;DHT22;5612;51.134;17.058;2024-01-15T08:25:01;1.90;99.90
2611;DHT22;5612;51.134;17.058;2024-01-15T08:27:31;2.00;99.90
2611;DHT22;5612;51.134;17.058;2024-01-15T08:30:00;2.00;98.00
2611;DHT22;5612;51.134;17.058;2024-01-15T08:32:32;2.00;75.60
2611;DHT22;5612;51.134;17.058;2024-01-15T08:35:04;2.10;75.20
2611;DHT22;5612;51.134;17.058;2024-01-15T08:37:33;2.10;92.90
2611;DHT22;5612;51.134;17.058;2024-01-15T08:40:02;2.10;51.50
2611;DHT22;5612;51.134;17.058;2024-01-15T08:42:32;2.20;75.30
2611;DHT22;5612;51.134;17.058;2024-01-15T08:45:01;2.20;54.30
2611;DHT22;5612;51.134;17.058;2024-01-15T08:47:31;2.10;53.60
2611;DHT22;5612;51.134;17.058;2024-01-15T08:50:00;2.10;65.90
2611;DHT22;5612;51.134;17.058;2024-01-15T08:52:30;2.10;46.10
2611;DHT22;5612;51.134;17.058;2024-01-15T08:54:59;2.10;62.80
2611;DHT22;5612;51.134;17.058;2024-01-15T08:57:28;2.10;35.00
2611;DHT22;5612;51.134;17.058;2024-01-15T08:59:57;2.10;46.10
2611;DHT22;5612;51.134;17.058;2024-01-15T09:02:27;2.20;40.90
2611;DHT22;5612;51.134;17.058;2024-01-15T09:04:57;2.30;23.90
2611;DHT22;5612;51.134;17.058;2024-01-15T09:07:27;2.30;14.50
2611;DHT22;5612;51.134;17.058;2024-01-15T09:09:55;2.30;43.90
2611;DHT22;5612;51.134;17.058;2024-01-15T09:12:27;2.30;21.40
2611;DHT22;5612;51.134;17.058;2024-01-15T09:14:58;2.20;25.70
2611;DHT22;5612;51.134;17.058;2024-01-15T09:17:27;2.20;55.20
2611;DHT22;5612;51.134;17.058;2024-01-15T09:19:57;2.30;81.20
2611;DHT22;5612;51.134;17.058;2024-01-15T09:22:26;2.30;24.30
2611;DHT22;5612;51.134;17.058;2024-01-15T09:24:55;2.30;56.50
2611;DHT22;5612;51.134;17.058;2024-01-15T09:27:24;2.30;45.60
2611;DHT22;5612;51.134;17.058;2024-01-15T09:29:54;2.40;30.00
2611;DHT22;5612;51.134;17.058;2024-01-15T09:32:22;2.30;31.10
2611;DHT22;5612;51.134;17.058;2024-01-15T09:34:51;2.30;43.20
2611;DHT22;5612;51.134;17.058;2024-01-15T09:37:24;2.30;44.60
2611;DHT22;5612;51.134;17.058;2024-01-15T09:40:13;2.40;41.20
2611;DHT22;5612;51.134;17.058;2024-01-15T09:42:43;2.30;57.30
2611;DHT22;5612;51.134;17.058;2024-01-15T09:45:13;2.30;37.70
2611;DHT22;5612;51.134;17.058;2024-01-15T09:47:42;2.30;46.20
2611;DHT22;5612;51.134;17.058;2024-01-15T09:50:13;2.30;63.10
2611;DHT22;5612;51.134;17.058;2024-01-15T09:52:45;2.40;38.70
2611;DHT22;5612;51.134;17.058;2024-01-15T09:55:15;2.40;33.20
2611;DHT22;5612;51.134;17.058;2024-01-15T09:57:45;2.40;23.00
2611;DHT22;5612;51.134;17.058;2024-01-15T10:00:17;2.40;41.50
2611;DHT22;5612;51.134;17.058;2024-01-15T10:02:47;2.40;50.90
2611;DHT22;5612;51.134;17.058;2024-01-15T10:05:17;2.40;54.40
2611;DHT22;5612;51.134;17.058;2024-01-15T10:07:48;2.40;53.60
2611;DHT22;5612;51.134;17.058;2024-01-15T10:10:18;2.40;29.80
2611;DHT22;5612;51.134;17.058;2024-01-15T10:12:49;2.40;43.00
2611;DHT22;5612;51.134;17.058;2024-01-15T10:15:21;2.50;37.80
2611;DHT22;5612;51.134;17.058;2024-01-15T10:17:51;2.50;22.40
2611;DHT22;5612;51.134;17.058;2024-01-15T10:20:20;2.50;36.10
2611;DHT22;5612;51.134;17.058;2024-01-15T10:22:51;2.50;13.60
2611;DHT22;5612;51.134;17.058;2024-01-15T10:25:20;2.50;25.80
2611;DHT22;5612;51.134;17.058;2024-01-15T10:28:03;2.50;24.90
2611;DHT22;5612;51.134;17.058;2024-01-15T10:30:32;2.50;23.60
2611;DHT22;5612;51.134;17.058;2024-01-15T10:33:02;2.60;1.00
2611;DHT22;5612;51.134;17.058;2024-01-15T10:35:33;2.60;1.00
2611;DHT22;5612;51.134;17.058;2024-01-15T10:38:05;2.60;1.00
2611;DHT22;5612;51.134;17.058;2024-01-15T10:40:34;2.60;1.00
2611;DHT22;5612;51.134;17.058;2024-01-15T10:43:04;2.60;1.00
2611;DHT22;5612;51.134;17.058;2024-01-15T10:45:33;2.90;1.00
2611;DHT22;5612;51.134;17.058;2024-01-15T10:48:02;3.00;1.00
2611;DHT22;5612;51.134;17.058;2024-01-15T10:50:32;3.10;1.00
2611;DHT22;5612;51.134;17.058;2024-01-15T10:53:01;3.30;1.00
2611;DHT22;5612;51.134;17.058;2024-01-15T10:55:32;3.50;1.00
2611;DHT22;5612;51.134;17.058;2024-01-15T10:58:02;3.70;1.00
2611;DHT22;5612;51.134;17.058;2024-01-15T11:00:32;3.60;1.00
2611;DHT22;5612;51.134;17.058;2024-01-15T11:03:02;3.60;1.00
2611;DHT22;5612;51.134;17.058;2024-01-15T11:05:34;3.60;1.00
2611;DHT22;5612;51.134;17.058;2024-01-15T11:08:06;3.90;1.00
2611;DHT22;5612;51.134;17.058;2024-01-15T11:10:43;4.80;1.00
2611;DHT22;5612;51.134;17.058;2024-01-15T11:13:15;5.90;1.00
2611;DHT22;5612;51.134;17.058;2024-01-15T11:16:00;6.80;1.00
2611;DHT22;5612;51.134;17.058;2024-01-15T11:18:30;7.10;1.00
2611;DHT22;5612;51.134;17.058;2024-01-15T11:21:25;7.50;1.00
2611;DHT22;5612;51.134;17.058;2024-01-15T11:23:56;7.30;1.00
2611;DHT22;5612;51.134;17.058;2024-01-15T11:26:35;7.00;1.00
2611;DHT22;5612;51.134;17.058;2024-01-15T11:29:05;6.20;1.00
2611;DHT22;5612;51.134;17.058;2024-01-15T11:31:57;5.40;1.00
2611;DHT22;5612;51.134;17.058;2024-01-15T11:34:57;5.10;1.00
2611;DHT22;5612;51.134;17.058;2024-01-15T11:37:56;5.60;1.00
2611;DHT22;5612;51.134;17.058;2024-01-15T11:40:40;6.10;1.00
2611;DHT22;5612;51.134;17.058;2024-01-15T11:43:13;6.30;1.00
2611;DHT22;5612;51.134;17.058;2024-01-15T11:45:45;6.50;1.00
2611;DHT22;5612;51.134;17.058;2024-01-15T11:48:19;5.80;1.00
2611;DHT22;5612;51.134;17.058;2024-01-15T11:50:50;5.60;1.00
2611;DHT22;5612;51.134;17.058;2024-01-15T11:53:32;6.40;1.00
2611;DHT22;5612;51.134;17.058;2024-01-15T11:56:04;6.80;1.00
2611;DHT22;5612;51.134;17.058;2024-01-15T11:58:37;6.60;1.00
2611;DHT22;5612;51.134;17.058;2024-01-15T12:01:06;6.40;1.00
2611;DHT22;5612;51.134;17.058;2024-01-15T12:03:34;5.80;1.00
2611;DHT22;5612;51.134;17.058;2024-01-15T12:06:06;5.00;1.00
2611;DHT22;5612;51.134;17.058;2024-01-15T12:08:35;4.60;1.00
2611;DHT22;5612;51.134;17.058;2024-01-15T12:11:07;4.20;1.00
2611;DHT22;5612;51.134;17.058;2024-01-15T12:13:41;3.90;1.00
2611;DHT22;5612;51.134;17.058;2024-01-15T12:16:10;3.80;1.00
2611;DHT22;5612;51.134;17.058;2024-01-15T12:18:39;3.60;1.00
2611;DHT22;5612;51.134;17.058;2024-01-15T12:21:10;3.50;1.00
2611;DHT22;5612;51.134;17.058;2024-01-15T12:23:39;3.50;1.00
2611;DHT22;5612;51.134;17.058;2024-01-15T12:26:08;3.40;1.00
2611;DHT22;5612;51.134;17.058;2024-01-15T12:28:37;3.40;1.00
2611;DHT22;5612;51.134;17.058;2024-01-15T12:31:08;3.50;1.00
2611;DHT22;5612;51.134;17.058;2024-01-15T12:33:37;3.50;1.00
2611;DHT22;5612;51.134;17.058;2024-01-15T12:36:08;3.50;1.00
2611;DHT22;5612;51.134;17.058;2024-01-15T12:38:37;3.50;1.00
2611;DHT22;5612;51.134;17.058;2024-01-15T12:41:07;3.40;1.00
2611;DHT22;5612;51.134;17.058;2024-01-15T12:43:36;3.40;1.00
2611;DHT22;5612;51.134;17.058;2024-01-15T12:46:05;3.30;1.00
2611;DHT22;5612;51.134;17.058;2024-01-15T12:48:36;3.20;1.00
2611;DHT22;5612;51.134;17.058;2024-01-15T12:51:08;3.20;1.00
2611;DHT22;5612;51.134;17.058;2024-01-15T12:53:37;3.20;1.00
2611;DHT22;5612;51.134;17.058;2024-01-15T12:56:06;3.20;1.00
2611;DHT22;5612;51.134;17.058;2024-01-15T12:58:35;3.20;1.00
2611;DHT22;5612;51.134;17.058;2024-01-15T13:01:04;3.20;1.00
2611;DHT22;5612;51.134;17.058;2024-01-15T13:03:33;3.20;1.00
2611;DHT22;5612;51.134;17.058;2024-01-15T13:06:04;3.20;1.00
2611;DHT22;5612;51.134;17.058;2024-01-15T13:08:35;3.20;1.00
2611;DHT22;5612;51.134;17.058;2024-01-15T13:11:04;3.20;1.00
2611;DHT22;5612;51.134;17.058;2024-01-15T13:13:33;3.10;1.00
2611;DHT22;5612;51.134;17.058;2024-01-15T13:16:02;3.00;1.00
2611;DHT22;5612;51.134;17.058;2024-01-15T13:18:32;3.00;1.00
2611;DHT22;5612;51.134;17.058;2024-01-15T13:21:03;2.90;1.00
2611;DHT22;5612;51.134;17.058;2024-01-15T13:23:32;2.90;1.00
2611;DHT22;5612;51.134;17.058;2024-01-15T13:26:00;2.80;1.00
2611;DHT22;5612;51.134;17.058;2024-01-15T13:28:30;2.80;1.00
2611;DHT22;5612;51.134;17.058;2024-01-15T13:30:59;2.80;1.00
2611;DHT22;5612;51.134;17.058;2024-01-15T13:33:28;2.80;1.00
2611;DHT22;5612;51.134;17.058;2024-01-15T13:35:58;2.70;1.00
2611;DHT22;5612;51.134;17.058;2024-01-15T13:38:28;2.60;1.00
2611;DHT22;5612;51.134;17.058;2024-01-15T13:41:02;2.60;1.00
2611;DHT22;5612;51.134;17.058;2024-01-15T13:43:31;2.70;1.00
2611;DHT22;5612;51.134;17.058;2024-01-15T13:46:01;2.70;1.00
2611;DHT22;5612;51.134;17.058;2024-01-15T13:48:32;2.70;1.00
2611;DHT22;5612;51.134;17.058;2024-01-15T13:51:01;2.70;1.00
2611;DHT22;5612;51.134;17.058;2024-01-15T13:53:31;2.70;1.00
2611;DHT22;5612;51.134;17.058;2024-01-15T13:56:01;2.60;1.00
2611;DHT22;5612;51.134;17.058;2024-01-15T13:58:30;2.60;21.10
2611;DHT22;5612;51.134;17.058;2024-01-15T14:01:00;2.60;1.00
2611;DHT22;5612;51.134;17.058;2024-01-15T14:03:31;2.60;17.10
2611;DHT22;5612;51.134;17.058;2024-01-15T14:06:04;2.60;1.00
2611;DHT22;5612;51.134;17.058;2024-01-15T14:08:37;2.60;1.00
2611;DHT22;5612;51.134;17.058;2024-01-15T14:11:06;2.60;23.20
2611;DHT22;5612;51.134;17.058;2024-01-15T14:13:36;2.60;2.90
2611;DHT22;5612;51.134;17.058;2024-01-15T14:16:06;2.60;7.20
2611;DHT22;5612;51.134;17.058;2024-01-15T14:18:38;2.60;1.00
2611;DHT22;5612;51.134;17.058;2024-01-15T14:21:09;2.60;1.00
2611;DHT22;5612;51.134;17.058;2024-01-15T14:23:39;2.60;1.00
2611;DHT22;5612;51.134;17.058;2024-01-15T14:26:11;2.70;1.00
2611;DHT22;5612;51.134;17.058;2024-01-15T14:28:42;2.70;1.00
2611;DHT22;5612;51.134;17.058;2024-01-15T14:31:11;2.70;1.00
2611;DHT22;5612;51.134;17.058;2024-01-15T14:33:40;2.70;1.00
2611;DHT22;5612;51.134;17.058;2024-01-15T14:36:09;2.60;1.00
2611;DHT22;5612;51.134;17.058;2024-01-15T14:38:40;2.60;1.00
2611;DHT22;5612;51.134;17.058;2024-01-15T14:41:09;2.60;1.00
2611;DHT22;5612;51.134;17.058;2024-01-15T14:43:38;2.60;1.00
2611;DHT22;5612;51.134;17.058;2024-01-15T14:46:07;2.60;1.00
2611;DHT22;5612;51.134;17.058;2024-01-15T14:48:37;2.60;1.00
2611;DHT22;5612;51.134;17.058;2024-01-15T14:51:06;2.60;1.00
2611;DHT22;5612;51.134;17.058;2024-01-15T14:53:35;2.60;1.00
2611;DHT22;5612;51.134;17.058;2024-01-15T14:56:06;2.60;1.00
2611;DHT22;5612;51.134;17.058;2024-01-15T14:58:35;2.50;1.00
2611;DHT22;5612;51.134;17.058;2024-01-15T15:01:04;2.50;1.00
2611;DHT22;5612;51.134;17.058;2024-01-15T15:03:35;2.60;1.00
2611;DHT22;5612;51.134;17.058;2024-01-15T15:06:05;2.60;1.00
2611;DHT22;5612;51.134;17.058;2024-01-15T15:08:36;2.60;1.00
2611;DHT22;5612;51.134;17.058;2024-01-15T15:11:07;2.60;1.00
2611;DHT22;5612;51.134;17.058;2024-01-15T15:13:36;2.60;1.00
2611;DHT22;5612;51.134;17.058;2024-01-15T15:16:12;2.60;1.00
2611;DHT22;5612;51.134;17.058;2024-01-15T15:18:41;2.60;1.00
2611;DHT22;5612;51.134;17.058;2024-01-15T15:21:11;2.60;1.00
2611;DHT22;5612;51.134;17.058;2024-01-15T15:23:44;2.60;1.00
2611;DHT22;5612;51.134;17.058;2024-01-15T15:26:15;2.60;1.00
2611;DHT22;5612;51.134;17.058;2024-01-15T15:28:44;2.60;1.00
2611;DHT22;5612;51.134;17.058;2024-01-15T15:31:13;2.60;1.00
2611;DHT22;5612;51.134;17.058;2024-01-15T15:33:43;2.60;1.00
2611;DHT22;5612;51.134;17.058;2024-01-15T15:36:12;2.60;1.00
2611;DHT22;5612;51.134;17.058;2024-01-15T15:38:41;2.60;1.00
2611;DHT22;5612;51.134;17.058;2024-01-15T15:41:10;2.50;1.00
2611;DHT22;5612;51.134;17.058;2024-01-15T15:43:41;2.50;4.00
2611;DHT22;5612;51.134;17.058;2024-01-15T15:46:11;2.50;13.90
2611;DHT22;5612;51.134;17.058;2024-01-15T15:48:40;2.50;23.50
2611;DHT22;5612;51.134;17.058;2024-01-15T15:51:09;2.50;43.90
2611;DHT22;5612;51.134;17.058;2024-01-15T15:53:41;2.40;38.40
2611;DHT22;5612;51.134;17.058;2024-01-15T15:56:10;2.40;58.50
2611;DHT22;5612;51.134;17.058;2024-01-15T15:58:41;2.40;99.90
2611;DHT22;5612;51.134;17.058;2024-01-15T16:01:10;2.40;99.90
2611;DHT22;5612;51.134;17.058;2024-01-15T16:03:39;2.40;99.90
2611;DHT22;5612;51.134;17.058;2024-01-15T16:06:08;2.30;99.90
2611;DHT22;5612;51.134;17.058;2024-01-15T16:08:38;2.20;99.90
2611;DHT22;5612;51.134;17.058;2024-01-15T16:11:07;2.20;99.90
2611;DHT22;5612;51.134;17.058;2024-01-15T16:13:36;2.20;99.90
2611;DHT22;5612;51.134;17.058;2024-01-15T16:16:06;2.20;99.90
2611;DHT22;5612;51.134;17.058;2024-01-15T16:18:56;2.10;99.90
2611;DHT22;5612;51.134;17.058;2024-01-15T16:21:45;2.10;99.90
2611;DHT22;5612;51.134;17.058;2024-01-15T16:24:34;2.00;99.90
2611;DHT22;5612;51.134;17.058;2024-01-15T16:27:17;2.00;99.90
2611;DHT22;5612;51.134;17.058;2024-01-15T16:29:47;2.00;99.90